sensor_id;sensor_type;location;lat;lon;timestamp;pressure;altitude;pressure_sealevel;temperature;humidity
34235;BME280;20500;49.856;20.290;2024-01-16T00:01:45;97206.23;;;-0.82;67.62
34235;BME280;20500;49.856;20.290;2024-01-16T00:04:51;97211.96;;;-0.82;67.66
34235;BME280;20500;49.856;20.290;2024-01-16T00:07:58;97218.58;;;-0.83;67.57
34235;BME280;20500;49.856;20.290;2024-01-16T00:11:05;97225.98;;;-0.84;67.66
34235;BME280;20500;49.856;20.290;2024-01-16T00:14:11;97226.59;;;-0.83;67.74
34235;BME280;20500;49.856;20.290;2024-01-16T00:17:18;97233.15;;;-0.81;67.65
34235;BME280;20500;49.856;20.290;2024-01-16T00:20:22;97240.08;;;-0.79;67.61
34235;BME280;20500;49.856;20.290;2024-01-16T00:23:28;97252.82;;;-0.76;67.76
34235;BME280;20500;49.856;20.290;2024-01-16T00:26:37;97268.34;;;-0.73;68.03
34235;BME280;20500;49.856;20.290;2024-01-16T00:29:44;97268.63;;;-0.72;68.19
34235;BME280;20500;49.856;20.290;2024-01-16T00:32:50;97262.63;;;-0.73;68.31
34235;BME280;20500;49.856;20.290;2024-01-16T00:35:57;97266.76;;;-0.75;68.43
34235;BME280;20500;49.856;20.290;2024-01-16T00:39:02;97271.89;;;-0.76;68.64
34235;BME280;20500;49.856;20.290;2024-01-16T00:42:08;97280.93;;;-0.76;68.76
34235;BME280;20500;49.856;20.290;2024-01-16T00:45:14;97281.27;;;-0.72;68.89
34235;BME280;20500;49.856;20.290;2024-01-16T00:48:22;97288.11;;;-0.69;68.84
34235;BME280;20500;49.856;20.290;2024-01-16T00:51:28;97290.14;;;-0.68;69.00
34235;BME280;20500;49.856;20.290;2024-01-16T00:54:35;97289.34;;;-0.65;68.91
34235;BME280;20500;49.856;20.290;2024-01-16T00:57:39;97293.37;;;-0.61;68.96
34235;BME280;20500;49.856;20.290;2024-01-16T01:00:45;97297.45;;;-0.58;68.89
34235;BME280;20500;49.856;20.290;2024-01-16T01:03:52;97303.38;;;-0.58;69.02
34235;BME280;20500;49.856;20.290;2024-01-16T01:06:59;97307.02;;;-0.59;69.22
34235;BME280;20500;49.856;20.290;2024-01-16T01:10:07;97302.65;;;-0.58;69.26
34235;BME280;20500;49.856;20.290;2024-01-16T01:13:14;97310.69;;;-0.60;69.25
34235;BME280;20500;49.856;20.290;2024-01-16T01:16:20;97318.27;;;-0.63;69.18
34235;BME280;20500;49.856;20.290;2024-01-16T01:19:27;97324.70;;;-0.64;69.31
34235;BME280;20500;49.856;20.290;2024-01-16T01:22:33;97325.25;;;-0.68;69.24
34235;BME280;20500;49.856;20.290;2024-01-16T01:25:38;97329.07;;;-0.69;69.41
34235;BME280;20500;49.856;20.290;2024-01-16T01:28:44;97336.02;;;-0.69;69.72
34235;BME280;20500;49.856;20.290;2024-01-16T01:31:51;97340.75;;;-0.68;69.69
34235;BME280;20500;49.856;20.290;2024-01-16T01:34:57;97342.82;;;-0.68;69.97
34235;BME280;20500;49.856;20.290;2024-01-16T01:38:04;97343.80;;;-0.66;69.85
34235;BME280;20500;49.856;20.290;2024-01-16T01:41:11;97343.95;;;-0.68;70.01
34235;BME280;20500;49.856;20.290;2024-01-16T01:44:18;97344.54;;;-0.69;70.09
34235;BME280;20500;49.856;20.290;2024-01-16T01:47:24;97347.77;;;-0.69;70.06
34235;BME280;20500;49.856;20.290;2024-01-16T01:50:31;97346.77;;;-0.70;70.13
34235;BME280;20500;49.856;20.290;2024-01-16T01:53:38;97344.17;;;-0.70;70.22
34235;BME280;20500;49.856;20.290;2024-01-16T01:56:46;97342.63;;;-0.69;70.20
34235;BME280;20500;49.856;20.290;2024-01-16T01:59:53;97342.80;;;-0.67;70.31
34235;BME280;20500;49.856;20.290;2024-01-16T02:03:00;97349.55;;;-0.66;70.31
34235;BME280;20500;49.856;20.290;2024-01-16T02:06:07;97351.14;;;-0.64;70.44
34235;BME280;20500;49.856;20.290;2024-01-16T02:09:13;97355.79;;;-0.64;70.40
34235;BME280;20500;49.856;20.290;2024-01-16T02:12:19;97354.80;;;-0.61;70.59
34235;BME280;20500;49.856;20.290;2024-01-16T02:15:29;97354.35;;;-0.57;70.51
34235;BME280;20500;49.856;20.290;2024-01-16T02:18:34;97363.52;;;-0.54;70.55
34235;BME280;20500;49.856;20.290;2024-01-16T02:21:41;97363.84;;;-0.52;70.69
34235;BME280;20500;49.856;20.290;2024-01-16T02:24:52;97365.73;;;-0.49;70.55
34235;BME280;20500;49.856;20.290;2024-01-16T02:27:59;97366.64;;;-0.47;70.60
34235;BME280;20500;49.856;20.290;2024-01-16T02:31:05;97367.19;;;-0.46;70.61
34235;BME280;20500;49.856;20.290;2024-01-16T02:34:13;97367.64;;;-0.43;70.58
34235;BME280;20500;49.856;20.290;2024-01-16T02:37:20;97373.24;;;-0.41;70.59
34235;BME280;20500;49.856;20.290;2024-01-16T02:40:27;97376.52;;;-0.36;70.67
34235;BME280;20500;49.856;20.290;2024-01-16T02:43:34;97380.05;;;-0.34;70.69
34235;BME280;20500;49.856;20.290;2024-01-16T02:46:40;97378.70;;;-0.33;70.72
34235;BME280;20500;49.856;20.290;2024-01-16T02:49:46;97375.95;;;-0.32;70.73
34235;BME280;20500;49.856;20.290;2024-01-16T02:52:51;97379.25;;;-0.32;70.66
34235;BME280;20500;49.856;20.290;2024-01-16T02:55:57;97385.75;;;-0.31;70.63
34235;BME280;20500;49.856;20.290;2024-01-16T02:59:04;97391.55;;;-0.33;70.80
34235;BME280;20500;49.856;20.290;2024-01-16T03:02:10;97396.08;;;-0.34;70.73
34235;BME280;20500;49.856;20.290;2024-01-16T03:05:18;97398.52;;;-0.35;70.70
34235;BME280;20500;49.856;20.290;2024-01-16T03:08:25;97395.09;;;-0.38;70.67
34235;BME280;20500;49.856;20.290;2024-01-16T03:11:31;97392.35;;;-0.41;70.56
34235;BME280;20500;49.856;20.290;2024-01-16T03:14:38;97396.01;;;-0.44;70.62
34235;BME280;20500;49.856;20.290;2024-01-16T03:17:45;97392.25;;;-0.45;70.69
34235;BME280;20500;49.856;20.290;2024-01-16T03:20:51;97393.83;;;-0.47;70.79
34235;BME280;20500;49.856;20.290;2024-01-16T03:23:58;97394.54;;;-0.48;70.67
34235;BME280;20500;49.856;20.290;2024-01-16T03:27:05;97392.02;;;-0.48;70.70
34235;BME280;20500;49.856;20.290;2024-01-16T03:30:12;97389.09;;;-0.48;70.75
34235;BME280;20500;49.856;20.290;2024-01-16T03:33:19;97387.36;;;-0.46;70.85
34235;BME280;20500;49.856;20.290;2024-01-16T03:36:25;97392.45;;;-0.44;70.96
34235;BME280;20500;49.856;20.290;2024-01-16T03:39:30;97397.74;;;-0.43;70.82
34235;BME280;20500;49.856;20.290;2024-01-16T03:42:37;97400.85;;;-0.44;70.90
34235;BME280;20500;49.856;20.290;2024-01-16T03:45:43;97405.79;;;-0.42;70.84
34235;BME280;20500;49.856;20.290;2024-01-16T03:48:49;97409.11;;;-0.39;70.68
34235;BME280;20500;49.856;20.290;2024-01-16T03:51:56;97406.40;;;-0.35;70.82
34235;BME280;20500;49.856;20.290;2024-01-16T03:55:01;97407.09;;;-0.34;70.77
34235;BME280;20500;49.856;20.290;2024-01-16T03:58:08;97409.63;;;-0.34;70.74
34235;BME280;20500;49.856;20.290;2024-01-16T04:01:17;97414.45;;;-0.36;70.76
34235;BME280;20500;49.856;20.290;2024-01-16T04:04:23;97411.48;;;-0.38;70.64
34235;BME280;20500;49.856;20.290;2024-01-16T04:07:28;97410.66;;;-0.41;70.47
34235;BME280;20500;49.856;20.290;2024-01-16T04:10:34;97412.31;;;-0.43;70.56
34235;BME280;20500;49.856;20.290;2024-01-16T04:13:42;97408.98;;;-0.43;70.66
34235;BME280;20500;49.856;20.290;2024-01-16T04:16:48;97404.80;;;-0.43;70.70
34235;BME280;20500;49.856;20.290;2024-01-16T04:19:53;97406.30;;;-0.41;70.65
34235;BME280;20500;49.856;20.290;2024-01-16T04:22:59;97411.21;;;-0.41;70.68
34235;BME280;20500;49.856;20.290;2024-01-16T04:26:06;97416.89;;;-0.39;70.70
34235;BME280;20500;49.856;20.290;2024-01-16T04:29:13;97412.14;;;-0.37;70.55
34235;BME280;20500;49.856;20.290;2024-01-16T04:32:18;97412.91;;;-0.36;70.48
34235;BME280;20500;49.856;20.290;2024-01-16T04:35:24;97411.86;;;-0.35;70.63
34235;BME280;20500;49.856;20.290;2024-01-16T04:38:31;97415.27;;;-0.33;70.71
34235;BME280;20500;49.856;20.290;2024-01-16T04:41:37;97416.29;;;-0.31;70.57
34235;BME280;20500;49.856;20.290;2024-01-16T04:44:44;97415.56;;;-0.31;70.65
34235;BME280;20500;49.856;20.290;2024-01-16T04:47:50;97424.31;;;-0.31;70.64
34235;BME280;20500;49.856;20.290;2024-01-16T04:50:56;97433.06;;;-0.31;70.69
34235;BME280;20500;49.856;20.290;2024-01-16T04:54:01;97434.77;;;-0.32;70.85
34235;BME280;20500;49.856;20.290;2024-01-16T04:57:08;97438.16;;;-0.36;70.98
34235;BME280;20500;49.856;20.290;2024-01-16T05:00:16;97443.21;;;-0.40;71.30
34235;BME280;20500;49.856;20.290;2024-01-16T05:03:22;97443.59;;;-0.44;71.19
34235;BME280;20500;49.856;20.290;2024-01-16T05:06:29;97455.45;;;-0.43;71.36
34235;BME280;20500;49.856;20.290;2024-01-16T05:09:35;97454.94;;;-0.45;71.52
34235;BME280;20500;49.856;20.290;2024-01-16T05:12:40;97455.98;;;-0.51;71.59
34235;BME280;20500;49.856;20.290;2024-01-16T05:15:47;97461.23;;;-0.55;71.62
34235;BME280;20500;49.856;20.290;2024-01-16T05:18:53;97464.06;;;-0.58;71.62
34235;BME280;20500;49.856;20.290;2024-01-16T05:22:00;97468.53;;;-0.58;71.64
34235;BME280;20500;49.856;20.290;2024-01-16T05:25:08;97474.72;;;-0.58;71.67
34235;BME280;20500;49.856;20.290;2024-01-16T05:28:14;97480.05;;;-0.56;71.54
34235;BME280;20500;49.856;20.290;2024-01-16T05:31:21;97488.95;;;-0.52;71.60
34235;BME280;20500;49.856;20.290;2024-01-16T05:34:25;97496.50;;;-0.49;71.61
34235;BME280;20500;49.856;20.290;2024-01-16T05:37:32;97504.80;;;-0.46;71.54
34235;BME280;20500;49.856;20.290;2024-01-16T05:40:39;97511.31;;;-0.44;71.58
34235;BME280;20500;49.856;20.290;2024-01-16T05:43:46;97520.61;;;-0.41;71.39
34235;BME280;20500;49.856;20.290;2024-01-16T05:46:53;97526.89;;;-0.37;71.40
34235;BME280;20500;49.856;20.290;2024-01-16T05:49:57;97532.52;;;-0.35;71.41
34235;BME280;20500;49.856;20.290;2024-01-16T05:53:05;97532.09;;;-0.32;71.50
34235;BME280;20500;49.856;20.290;2024-01-16T05:56:11;97533.83;;;-0.32;71.56
34235;BME280;20500;49.856;20.290;2024-01-16T05:59:18;97540.45;;;-0.32;71.54
34235;BME280;20500;49.856;20.290;2024-01-16T06:02:24;97539.51;;;-0.30;71.44
34235;BME280;20500;49.856;20.290;2024-01-16T06:05:30;97546.10;;;-0.28;71.37
34235;BME280;20500;49.856;20.290;2024-01-16T06:08:37;97552.95;;;-0.27;71.29
34235;BME280;20500;49.856;20.290;2024-01-16T06:11:44;97559.27;;;-0.26;71.38
34235;BME280;20500;49.856;20.290;2024-01-16T06:14:50;97564.63;;;-0.24;71.34
34235;BME280;20500;49.856;20.290;2024-01-16T06:17:57;97571.94;;;-0.22;71.24
34235;BME280;20500;49.856;20.290;2024-01-16T06:21:04;97579.47;;;-0.23;71.42
34235;BME280;20500;49.856;20.290;2024-01-16T06:24:11;97589.83;;;-0.23;71.36
34235;BME280;20500;49.856;20.290;2024-01-16T06:27:18;97589.49;;;-0.23;71.19
34235;BME280;20500;49.856;20.290;2024-01-16T06:30:25;97592.88;;;-0.23;71.29
34235;BME280;20500;49.856;20.290;2024-01-16T06:33:31;97590.60;;;-0.23;71.32
34235;BME280;20500;49.856;20.290;2024-01-16T06:36:38;97590.63;;;-0.24;71.25
34235;BME280;20500;49.856;20.290;2024-01-16T06:39:42;97596.52;;;-0.24;71.36
34235;BME280;20500;49.856;20.290;2024-01-16T06:42:49;97599.44;;;-0.23;71.35
34235;BME280;20500;49.856;20.290;2024-01-16T06:45:55;97610.39;;;-0.22;71.38
34235;BME280;20500;49.856;20.290;2024-01-16T06:49:02;97628.58;;;-0.22;71.47
34235;BME280;20500;49.856;20.290;2024-01-16T06:52:09;97641.86;;;-0.23;71.51
34235;BME280;20500;49.856;20.290;2024-01-16T06:55:15;97650.30;;;-0.23;71.68
34235;BME280;20500;49.856;20.290;2024-01-16T06:58:21;97658.18;;;-0.28;71.76
34235;BME280;20500;49.856;20.290;2024-01-16T07:01:26;97661.39;;;-0.33;71.90
34235;BME280;20500;49.856;20.290;2024-01-16T07:04:32;97657.73;;;-0.39;71.96
34235;BME280;20500;49.856;20.290;2024-01-16T07:07:37;97655.08;;;-0.45;72.36
34235;BME280;20500;49.856;20.290;2024-01-16T07:10:43;97658.23;;;-0.48;72.44
34235;BME280;20500;49.856;20.290;2024-01-16T07:13:51;97668.59;;;-0.46;72.61
34235;BME280;20500;49.856;20.290;2024-01-16T07:16:57;97675.69;;;-0.44;72.68
34235;BME280;20500;49.856;20.290;2024-01-16T07:20:04;97680.95;;;-0.40;72.59
34235;BME280;20500;49.856;20.290;2024-01-16T07:23:11;97686.27;;;-0.38;72.82
34235;BME280;20500;49.856;20.290;2024-01-16T07:26:18;97686.27;;;-0.38;72.77
34235;BME280;20500;49.856;20.290;2024-01-16T07:29:24;97688.05;;;-0.36;72.88
34235;BME280;20500;49.856;20.290;2024-01-16T07:32:31;97696.71;;;-0.35;72.82
34235;BME280;20500;49.856;20.290;2024-01-16T07:35:37;97703.58;;;-0.31;72.99
34235;BME280;20500;49.856;20.290;2024-01-16T07:38:46;97711.65;;;-0.31;73.03
34235;BME280;20500;49.856;20.290;2024-01-16T07:41:53;97718.37;;;-0.31;72.98
34235;BME280;20500;49.856;20.290;2024-01-16T07:44:59;97719.19;;;-0.30;73.10
34235;BME280;20500;49.856;20.290;2024-01-16T07:48:06;97722.60;;;-0.30;73.21
34235;BME280;20500;49.856;20.290;2024-01-16T07:51:13;97720.73;;;-0.29;73.27
34235;BME280;20500;49.856;20.290;2024-01-16T07:54:19;97720.52;;;-0.25;73.45
34235;BME280;20500;49.856;20.290;2024-01-16T07:57:24;97727.39;;;-0.19;73.57
34235;BME280;20500;49.856;20.290;2024-01-16T08:00:30;97731.23;;;-0.11;73.71
34235;BME280;20500;49.856;20.290;2024-01-16T08:03:37;97729.66;;;0.00;73.68
34235;BME280;20500;49.856;20.290;2024-01-16T08:06:44;97731.77;;;0.08;73.68
34235;BME280;20500;49.856;20.290;2024-01-16T08:09:51;97732.81;;;0.17;73.94
34235;BME280;20500;49.856;20.290;2024-01-16T08:12:58;97733.38;;;0.32;73.97
34235;BME280;20500;49.856;20.290;2024-01-16T08:16:02;97734.02;;;0.41;73.84
34235;BME280;20500;49.856;20.290;2024-01-16T08:19:09;97738.67;;;0.43;74.06
34235;BME280;20500;49.856;20.290;2024-01-16T08:22:15;97746.34;;;0.49;73.91
34235;BME280;20500;49.856;20.290;2024-01-16T08:25:22;97749.61;;;0.52;73.84
34235;BME280;20500;49.856;20.290;2024-01-16T08:28:28;97755.44;;;0.58;74.03
34235;BME280;20500;49.856;20.290;2024-01-16T08:31:35;97753.05;;;0.69;74.09
34235;BME280;20500;49.856;20.290;2024-01-16T08:34:39;97756.03;;;0.73;73.71
34235;BME280;20500;49.856;20.290;2024-01-16T08:37:46;97760.88;;;0.73;73.72
34235;BME280;20500;49.856;20.290;2024-01-16T08:40:53;97772.39;;;0.72;73.73
34235;BME280;20500;49.856;20.290;2024-01-16T08:43:59;97784.99;;;0.71;73.64
34235;BME280;20500;49.856;20.290;2024-01-16T08:47:06;97792.39;;;0.74;73.70
34235;BME280;20500;49.856;20.290;2024-01-16T08:50:12;97794.82;;;0.76;73.64
34235;BME280;20500;49.856;20.290;2024-01-16T08:53:19;97791.77;;;0.77;73.59
34235;BME280;20500;49.856;20.290;2024-01-16T08:56:28;97796.54;;;0.79;73.64
34235;BME280;20500;49.856;20.290;2024-01-16T08:59:32;97800.67;;;0.79;73.56
34235;BME280;20500;49.856;20.290;2024-01-16T09:02:39;97804.70;;;0.76;73.44
34235;BME280;20500;49.856;20.290;2024-01-16T09:05:46;97813.38;;;0.69;73.41
34235;BME280;20500;49.856;20.290;2024-01-16T09:08:52;97815.88;;;0.62;73.10
34235;BME280;20500;49.856;20.290;2024-01-16T09:11:57;97817.35;;;0.55;73.32
34235;BME280;20500;49.856;20.290;2024-01-16T09:15:05;97822.93;;;0.45;73.09
34235;BME280;20500;49.856;20.290;2024-01-16T09:18:11;97820.97;;;0.37;73.00
34235;BME280;20500;49.856;20.290;2024-01-16T09:21:18;97823.42;;;0.38;73.05
34235;BME280;20500;49.856;20.290;2024-01-16T09:24:23;97817.48;;;0.40;72.94
34235;BME280;20500;49.856;20.290;2024-01-16T09:31:54;97824.21;;;0.39;72.82
34235;BME280;20500;49.856;20.290;2024-01-16T09:35:01;97822.09;;;0.42;72.81
34235;BME280;20500;49.856;20.290;2024-01-16T09:38:07;97826.33;;;0.48;72.57
34235;BME280;20500;49.856;20.290;2024-01-16T09:41:14;97831.39;;;0.55;72.55
34235;BME280;20500;49.856;20.290;2024-01-16T09:44:20;97835.11;;;0.59;72.46
34235;BME280;20500;49.856;20.290;2024-01-16T09:47:27;97838.73;;;0.60;72.22
34235;BME280;20500;49.856;20.290;2024-01-16T09:50:35;97835.35;;;0.59;72.24
34235;BME280;20500;49.856;20.290;2024-01-16T09:53:41;97835.82;;;0.59;72.05
34235;BME280;20500;49.856;20.290;2024-01-16T09:56:50;97832.11;;;0.61;71.88
34235;BME280;20500;49.856;20.290;2024-01-16T09:59:58;97840.15;;;0.62;71.96
34235;BME280;20500;49.856;20.290;2024-01-16T10:03:07;97838.23;;;0.64;71.84
34235;BME280;20500;49.856;20.290;2024-01-16T10:06:16;97841.75;;;0.64;71.65
34235;BME280;20500;49.856;20.290;2024-01-16T10:09:25;97843.73;;;0.64;71.72
34235;BME280;20500;49.856;20.290;2024-01-16T10:12:32;97845.34;;;0.62;71.50
34235;BME280;20500;49.856;20.290;2024-01-16T10:15:38;97847.84;;;0.62;71.59
34235;BME280;20500;49.856;20.290;2024-01-16T10:18:44;97857.40;;;0.70;71.63
34235;BME280;20500;49.856;20.290;2024-01-16T10:21:49;97864.88;;;0.80;71.52
34235;BME280;20500;49.856;20.290;2024-01-16T10:25:10;97859.80;;;0.84;71.34
34235;BME280;20500;49.856;20.290;2024-01-16T10:28:22;97861.48;;;0.87;71.15
34235;BME280;20500;49.856;20.290;2024-01-16T10:31:31;97863.98;;;0.94;71.19
34235;BME280;20500;49.856;20.290;2024-01-16T10:34:37;97865.06;;;1.19;71.49
34235;BME280;20500;49.856;20.290;2024-01-16T10:37:44;97874.31;;;1.61;71.63
34235;BME280;20500;49.856;20.290;2024-01-16T10:41:05;97879.43;;;1.76;71.15
34235;BME280;20500;49.856;20.290;2024-01-16T10:44:11;97886.49;;;1.78;70.96
34235;BME280;20500;49.856;20.290;2024-01-16T10:47:17;97885.83;;;1.83;71.05
34235;BME280;20500;49.856;20.290;2024-01-16T10:50:23;97886.10;;;1.92;70.95
34235;BME280;20500;49.856;20.290;2024-01-16T10:53:30;97890.11;;;2.01;70.87
34235;BME280;20500;49.856;20.290;2024-01-16T10:56:38;97890.59;;;2.05;70.76
34235;BME280;20500;49.856;20.290;2024-01-16T10:59:50;97891.31;;;2.08;70.67
34235;BME280;20500;49.856;20.290;2024-01-16T11:03:05;97892.25;;;2.18;70.66
34235;BME280;20500;49.856;20.290;2024-01-16T11:06:11;97884.59;;;2.27;70.61
34235;BME280;20500;49.856;20.290;2024-01-16T11:09:21;97882.38;;;2.27;70.32
34235;BME280;20500;49.856;20.290;2024-01-16T11:12:27;97877.54;;;2.27;70.30
34235;BME280;20500;49.856;20.290;2024-01-16T11:15:35;97883.23;;;2.26;70.10
34235;BME280;20500;49.856;20.290;2024-01-16T11:18:43;97888.98;;;2.26;70.20
34235;BME280;20500;49.856;20.290;2024-01-16T11:21:49;97891.70;;;2.27;70.07
34235;BME280;20500;49.856;20.290;2024-01-16T11:25:10;97888.35;;;2.28;70.00
34235;BME280;20500;49.856;20.290;2024-01-16T11:28:16;97884.78;;;2.26;69.79
34235;BME280;20500;49.856;20.290;2024-01-16T11:31:31;97887.64;;;2.26;69.72
34235;BME280;20500;49.856;20.290;2024-01-16T11:34:56;97880.16;;;2.19;69.61
34235;BME280;20500;49.856;20.290;2024-01-16T11:38:08;97878.47;;;2.16;69.50
34235;BME280;20500;49.856;20.290;2024-01-16T11:41:49;97873.63;;;2.20;69.33
34235;BME280;20500;49.856;20.290;2024-01-16T11:44:56;97878.83;;;2.24;69.15
34235;BME280;20500;49.856;20.290;2024-01-16T11:48:11;97878.71;;;2.21;69.05
34235;BME280;20500;49.856;20.290;2024-01-16T11:51:25;97878.79;;;2.24;68.93
34235;BME280;20500;49.856;20.290;2024-01-16T11:54:31;97885.48;;;2.26;68.69
34235;BME280;20500;49.856;20.290;2024-01-16T11:57:56;97890.85;;;2.30;68.56
34235;BME280;20500;49.856;20.290;2024-01-16T12:01:11;97893.13;;;2.32;68.37
34235;BME280;20500;49.856;20.290;2024-01-16T12:04:17;97907.71;;;2.28;68.10
34235;BME280;20500;49.856;20.290;2024-01-16T12:07:25;97910.34;;;2.14;67.88
34235;BME280;20500;49.856;20.290;2024-01-16T12:10:31;97910.02;;;2.02;67.76
34235;BME280;20500;49.856;20.290;2024-01-16T12:13:36;97915.27;;;1.96;67.64
34235;BME280;20500;49.856;20.290;2024-01-16T12:16:43;97917.55;;;1.94;67.57
34235;BME280;20500;49.856;20.290;2024-01-16T12:19:49;97916.67;;;1.94;67.57
34235;BME280;20500;49.856;20.290;2024-01-16T12:22:57;97915.11;;;1.98;67.51
34235;BME280;20500;49.856;20.290;2024-01-16T12:26:03;97919.95;;;2.06;67.43
34235;BME280;20500;49.856;20.290;2024-01-16T12:29:09;97918.52;;;2.11;67.26
34235;BME280;20500;49.856;20.290;2024-01-16T12:32:13;97914.91;;;2.15;67.07
34235;BME280;20500;49.856;20.290;2024-01-16T12:35:22;97915.96;;;2.21;66.91
34235;BME280;20500;49.856;20.290;2024-01-16T12:38:29;97919.49;;;2.32;67.06
34235;BME280;20500;49.856;20.290;2024-01-16T12:41:37;97924.48;;;2.47;66.93
34235;BME280;20500;49.856;20.290;2024-01-16T12:44:46;97928.54;;;2.62;66.90
34235;BME280;20500;49.856;20.290;2024-01-16T12:47:54;97932.52;;;2.61;66.67
34235;BME280;20500;49.856;20.290;2024-01-16T12:51:02;97935.55;;;2.57;66.42
34235;BME280;20500;49.856;20.290;2024-01-16T12:54:16;97936.81;;;2.53;66.28
34235;BME280;20500;49.856;20.290;2024-01-16T12:57:23;97930.81;;;2.56;66.27
34235;BME280;20500;49.856;20.290;2024-01-16T13:00:29;97931.16;;;2.59;66.08
34235;BME280;20500;49.856;20.290;2024-01-16T13:03:35;97938.61;;;2.70;66.13
34235;BME280;20500;49.856;20.290;2024-01-16T13:06:41;97947.36;;;2.80;66.11
34235;BME280;20500;49.856;20.290;2024-01-16T13:09:48;97952.57;;;2.79;65.91
34235;BME280;20500;49.856;20.290;2024-01-16T13:13:12;97958.56;;;2.64;65.86
34235;BME280;20500;49.856;20.290;2024-01-16T13:16:19;97970.77;;;2.41;66.20
34235;BME280;20500;49.856;20.290;2024-01-16T13:19:28;97975.02;;;2.24;66.47
34235;BME280;20500;49.856;20.290;2024-01-16T13:22:38;97984.77;;;2.13;66.44
34235;BME280;20500;49.856;20.290;2024-01-16T13:25:51;97990.08;;;1.96;66.45
34235;BME280;20500;49.856;20.290;2024-01-16T13:28:55;97995.74;;;1.73;66.52
34235;BME280;20500;49.856;20.290;2024-01-16T13:32:01;98004.40;;;1.45;66.41
34235;BME280;20500;49.856;20.290;2024-01-16T13:35:08;98021.89;;;1.22;66.70
34235;BME280;20500;49.856;20.290;2024-01-16T13:38:14;98041.79;;;0.95;66.83
34235;BME280;20500;49.856;20.290;2024-01-16T13:41:21;98056.65;;;0.69;66.91
34235;BME280;20500;49.856;20.290;2024-01-16T13:44:27;98054.80;;;0.50;66.92
34235;BME280;20500;49.856;20.290;2024-01-16T13:47:33;98054.83;;;0.31;67.06
34235;BME280;20500;49.856;20.290;2024-01-16T13:50:44;98047.70;;;0.16;67.30
34235;BME280;20500;49.856;20.290;2024-01-16T13:53:50;98047.55;;;0.11;67.51
34235;BME280;20500;49.856;20.290;2024-01-16T13:56:56;98046.79;;;0.16;67.76
34235;BME280;20500;49.856;20.290;2024-01-16T14:00:14;98048.08;;;0.21;67.62
34235;BME280;20500;49.856;20.290;2024-01-16T14:03:21;98048.36;;;0.20;67.69
34235;BME280;20500;49.856;20.290;2024-01-16T14:06:31;98050.47;;;0.24;67.85
34235;BME280;20500;49.856;20.290;2024-01-16T14:09:57;98049.29;;;0.27;67.70
34235;BME280;20500;49.856;20.290;2024-01-16T14:13:03;98058.55;;;0.28;67.67
34235;BME280;20500;49.856;20.290;2024-01-16T14:16:10;98063.56;;;0.27;67.80
34235;BME280;20500;49.856;20.290;2024-01-16T14:19:16;98066.70;;;0.24;67.75
34235;BME280;20500;49.856;20.290;2024-01-16T14:22:22;98074.13;;;0.19;67.87
34235;BME280;20500;49.856;20.290;2024-01-16T14:25:28;98080.02;;;0.17;67.97
34235;BME280;20500;49.856;20.290;2024-01-16T14:28:34;98081.77;;;0.15;67.88
34235;BME280;20500;49.856;20.290;2024-01-16T14:31:40;98081.80;;;0.15;68.08
34235;BME280;20500;49.856;20.290;2024-01-16T14:34:47;98085.07;;;0.15;68.09
34235;BME280;20500;49.856;20.290;2024-01-16T14:37:53;98086.02;;;0.08;68.08
34235;BME280;20500;49.856;20.290;2024-01-16T14:40:59;98090.41;;;0.01;68.17
34235;BME280;20500;49.856;20.290;2024-01-16T14:44:07;98095.02;;;-0.03;68.30
34235;BME280;20500;49.856;20.290;2024-01-16T14:47:14;98097.22;;;-0.07;68.36
34235;BME280;20500;49.856;20.290;2024-01-16T14:50:20;98102.81;;;-0.14;68.31
34235;BME280;20500;49.856;20.290;2024-01-16T14:53:26;98108.38;;;-0.22;68.27
34235;BME280;20500;49.856;20.290;2024-01-16T14:56:32;98109.40;;;-0.29;68.39
34235;BME280;20500;49.856;20.290;2024-01-16T14:59:38;98112.38;;;-0.33;68.54
34235;BME280;20500;49.856;20.290;2024-01-16T15:02:44;98113.20;;;-0.36;68.45
34235;BME280;20500;49.856;20.290;2024-01-16T15:05:51;98117.93;;;-0.41;68.34
34235;BME280;20500;49.856;20.290;2024-01-16T15:08:59;98118.05;;;-0.46;68.52
34235;BME280;20500;49.856;20.290;2024-01-16T15:12:07;98128.15;;;-0.50;68.66
34235;BME280;20500;49.856;20.290;2024-01-16T15:15:14;98134.43;;;-0.51;68.63
34235;BME280;20500;49.856;20.290;2024-01-16T15:18:20;98133.12;;;-0.52;68.72
34235;BME280;20500;49.856;20.290;2024-01-16T15:21:26;98124.55;;;-0.56;68.86
34235;BME280;20500;49.856;20.290;2024-01-16T15:24:32;98122.93;;;-0.58;68.94
34235;BME280;20500;49.856;20.290;2024-01-16T15:27:38;98133.06;;;-0.61;69.00
34235;BME280;20500;49.856;20.290;2024-01-16T15:30:44;98139.73;;;-0.64;69.01
34235;BME280;20500;49.856;20.290;2024-01-16T15:33:50;98141.61;;;-0.65;69.20
34235;BME280;20500;49.856;20.290;2024-01-16T15:36:56;98146.54;;;-0.60;69.44
34235;BME280;20500;49.856;20.290;2024-01-16T15:40:04;98150.13;;;-0.50;69.55
34235;BME280;20500;49.856;20.290;2024-01-16T15:43:11;98153.61;;;-0.50;69.22
34235;BME280;20500;49.856;20.290;2024-01-16T15:46:17;98159.39;;;-0.55;69.48
34235;BME280;20500;49.856;20.290;2024-01-16T15:49:23;98163.35;;;-0.59;69.79
34235;BME280;20500;49.856;20.290;2024-01-16T15:52:29;98164.64;;;-0.62;69.93
34235;BME280;20500;49.856;20.290;2024-01-16T15:55:35;98164.89;;;-0.64;69.95
34235;BME280;20500;49.856;20.290;2024-01-16T15:58:40;98168.66;;;-0.63;70.03
34235;BME280;20500;49.856;20.290;2024-01-16T16:01:46;98173.38;;;-0.62;70.13
34235;BME280;20500;49.856;20.290;2024-01-16T16:04:52;98171.14;;;-0.58;70.38
34235;BME280;20500;49.856;20.290;2024-01-16T16:07:58;98179.39;;;-0.53;70.46
34235;BME280;20500;49.856;20.290;2024-01-16T16:11:04;98178.86;;;-0.49;70.56
34235;BME280;20500;49.856;20.290;2024-01-16T16:14:10;98185.32;;;-0.43;70.79
34235;BME280;20500;49.856;20.290;2024-01-16T16:17:16;98186.95;;;-0.37;70.70
34235;BME280;20500;49.856;20.290;2024-01-16T16:20:22;98191.91;;;-0.37;70.73
34235;BME280;20500;49.856;20.290;2024-01-16T16:23:29;98194.80;;;-0.36;70.89
34235;BME280;20500;49.856;20.290;2024-01-16T16:26:37;98201.34;;;-0.35;70.89
34235;BME280;20500;49.856;20.290;2024-01-16T16:29:44;98210.80;;;-0.33;70.96